TimeMDT,TemperatureF,Dew PointF,Humidity,Sea Level PressureIn,VisibilityMPH,Wind Direction,Wind SpeedMPH,Gust SpeedMPH,PrecipitationIn,Events,Conditions,WindDirDegrees,DateUTC
12:56 AM,61.0,39.0,44,29.81,10.0,SSW,3.5,-,N/A,,Clear,210,2013-08-25 06:56:00
1:56 AM,61.0,39.0,44,29.79,10.0,NE,5.8,-,N/A,,Clear,50,2013-08-25 07:56:00
2:56 AM,54.0,41.0,62,29.81,10.0,NW,8.1,-,N/A,,Clear,320,2013-08-25 08:56:00
3:56 AM,54.0,41.0,62,29.82,10.0,NW,5.8,-,N/A,,Clear,310,2013-08-25 09:56:00
4:56 AM,55.0,41.0,59,29.85,10.0,NNW,5.8,-,N/A,,Clear,330,2013-08-25 10:56:00
5:56 AM,55.9,39.9,55,29.86,10.0,North,8.1,-,N/A,,Clear,350,2013-08-25 11:56:00
6:56 AM,51.1,39.9,66,29.88,10.0,North,8.1,-,N/A,,Clear,350,2013-08-25 12:56:00
7:56 AM,55.9,42.1,60,29.90,10.0,Calm,Calm,-,N/A,,Clear,0,2013-08-25 13:56:00
8:56 AM,63.0,44.1,50,29.91,10.0,NNW,4.6,-,N/A,,Clear,340,2013-08-25 14:56:00
9:56 AM,69.1,44.1,40,29.91,10.0,Calm,Calm,-,N/A,,Clear,0,2013-08-25 15:56:00
10:56 AM,75.0,45.0,34,29.90,10.0,Variable,3.5,-,N/A,,Clear,0,2013-08-25 16:56:00
11:56 AM,79.0,44.1,29,29.90,10.0,South,8.1,-,N/A,,Clear,190,2013-08-25 17:56:00
12:56 PM,81.0,42.1,25,29.89,10.0,SSE,6.9,-,N/A,,Clear,160,2013-08-25 18:56:00
1:56 PM,82.0,42.1,24,29.87,9.0,SSE,12.7,21.9,N/A,,Clear,150,2013-08-25 19:56:00
2:56 PM,82.9,39.9,22,29.86,10.0,SSW,11.5,16.1,N/A,,Clear,210,2013-08-25 20:56:00
3:56 PM,84.9,41.0,21,29.84,10.0,SE,10.4,16.1,N/A,,Clear,130,2013-08-25 21:56:00
4:56 PM,86.0,39.9,20,29.82,10.0,SE,11.5,18.4,N/A,,Clear,140,2013-08-25 22:56:00
5:56 PM,84.0,39.9,21,29.81,10.0,SE,8.1,18.4,N/A,,Clear,130,2013-08-25 23:56:00
6:56 PM,82.9,39.9,22,29.82,10.0,East,9.2,-,N/A,,Clear,90,2013-08-26 00:56:00
7:56 PM,77.0,42.1,29,29.85,10.0,SE,21.9,32.2,N/A,,Mostly Cloudy,140,2013-08-26 01:56:00
8:56 PM,70.0,48.0,46,29.92,10.0,South,12.7,36.8,0.00,Rain,Light Rain,170,2013-08-26 02:56:00
9:56 PM,68.0,48.0,49,29.91,10.0,Variable,5.8,-,0.00,,Partly Cloudy,0,2013-08-26 03:56:00
10:56 PM,64.0,48.9,58,29.90,10.0,NNE,10.4,-,N/A,,Partly Cloudy,20,2013-08-26 04:56:00
11:56 PM,62.1,50.0,65,29.89,10.0,South,3.5,-,N/A,,Clear,170,2013-08-26 05:56:00